Time;durP1;ratioP1;P1;durP2;ratioP2;P2;SDS_P1;SDS_P2;PMS_P1;PMS_P2;Temp;Humidity;BMP_temperature;BMP_pressure;BME280_temperature;BME280_humidity;BME280_pressure;Samples;Min_cycle;Max_cycle;Signal;HPM_P1;HPM_P2
2021/03/06 00:08:48;;;;;;;12.00;5.60;;;2.80;99.90;;;;;;20998794;28;20293;-78
2021/03/06 00:18:49;;;;;;;12.52;5.65;;;2.60;99.90;;;;;;20937110;28;20066;-78
2021/03/06 00:28:50;;;;;;;14.43;7.00;;;2.40;99.90;;;;;;20948118;28;20037;-76
2021/03/06 00:38:51;;;;;;;;;;;2.30;99.90;;;;;;20940928;28;20028;-77
2021/03/06 00:48:52;;;;;;;12.17;6.43;;;2.30;99.90;;;;;;20889905;28;20007;-78
2021/03/06 00:58:53;;;;;;;13.18;6.65;;;2.20;99.90;;;;;;20942996;28;20370;-77
2021/03/06 01:08:54;;;;;;;17.05;7.88;;;2.10;99.90;;;;;;20999698;22;20039;-78
2021/03/06 01:18:55;;;;;;;;;;;2.00;99.90;;;;;;20991582;28;20033;-79
2021/03/06 01:28:56;;;;;;;14.10;6.55;;;1.90;99.90;;;;;;21003364;28;20380;-78
2021/03/06 01:38:56;;;;;;;;;;;1.80;99.90;;;;;;21003169;28;20021;-78
2021/03/06 01:48:57;;;;;;;12.75;6.72;;;1.80;99.90;;;;;;20999907;28;19912;-77
2021/03/06 01:58:59;;;;;;;15.23;7.85;;;1.90;99.90;;;;;;21005406;28;20024;-77
2021/03/06 02:09:00;;;;;;;14.63;7.50;;;1.80;99.90;;;;;;20995278;28;20035;-77
2021/03/06 02:19:05;;;;;;;;;;;1.90;99.90;;;;;;20996544;28;20025;-77
2021/03/06 02:29:38;;;;;;;15.15;7.82;;;1.90;99.90;;;;;;20973455;28;20338;-78
2021/03/06 02:39:43;;;;;;;17.67;8.20;;;2.10;99.90;;;;;;20998071;28;20174;-78
2021/03/06 02:49:50;;;;;;;18.75;8.13;;;2.10;99.90;;;;;;21028686;28;20052;-78
2021/03/06 03:00:10;;;;;;;18.55;7.80;;;2.00;99.90;;;;;;21001134;28;20584;-77
2021/03/06 03:10:14;;;;;;;16.92;8.70;;;1.90;99.90;;;;;;21003283;28;20486;-77
2021/03/06 03:20:24;;;;;;;16.15;7.97;;;1.90;99.90;;;;;;21025928;28;20034;-78
2021/03/06 03:30:25;;;;;;;14.85;8.55;;;1.80;99.90;;;;;;21005428;28;20028;-77
2021/03/06 03:40:26;;;;;;;16.15;8.43;;;1.70;99.90;;;;;;21018781;28;20112;-78
2021/03/06 03:50:27;;;;;;;15.73;7.53;;;1.70;99.90;;;;;;20999307;28;20024;-78
2021/03/06 04:00:28;;;;;;;17.65;8.30;;;1.60;99.90;;;;;;20996132;28;20053;-77
2021/03/06 04:10:29;;;;;;;16.40;8.10;;;1.60;99.90;;;;;;20998546;28;20037;-77
2021/03/06 04:20:30;;;;;;;15.98;8.27;;;1.40;99.90;;;;;;20997150;28;20052;-78
2021/03/06 04:30:31;;;;;;;18.98;8.57;;;1.40;99.90;;;;;;21018675;28;20502;-76
2021/03/06 04:40:32;;;;;;;18.40;9.15;;;1.20;99.90;;;;;;21018754;28;20108;-78
2021/03/06 04:50:33;;;;;;;16.77;8.32;;;1.10;99.90;;;;;;21019852;28;20028;-78
2021/03/06 05:00:33;;;;;;;17.58;8.30;;;1.10;99.90;;;;;;21017653;28;20031;-78
2021/03/06 05:10:34;;;;;;;18.35;9.05;;;0.90;99.90;;;;;;20997753;28;20028;-78
2021/03/06 05:20:35;;;;;;;20.70;9.02;;;0.80;99.90;;;;;;20992720;28;20127;-78
2021/03/06 05:30:36;;;;;;;20.90;9.68;;;0.80;99.90;;;;;;20997598;28;20032;-78
2021/03/06 05:40:42;;;;;;;17.73;8.90;;;0.70;99.90;;;;;;21014923;28;20031;-78
2021/03/06 05:50:44;;;;;;;17.67;9.10;;;0.70;99.90;;;;;;21010864;28;20494;-78
2021/03/06 06:00:45;;;;;;;20.10;9.60;;;0.60;99.90;;;;;;21012810;28;20035;-78
2021/03/06 06:10:46;;;;;;;17.67;9.02;;;0.60;99.90;;;;;;21014748;28;20033;-78
2021/03/06 06:20:47;;;;;;;18.10;9.02;;;0.60;99.90;;;;;;21013959;28;20041;-76
2021/03/06 06:31:09;;;;;;;16.38;8.57;;;0.70;99.90;;;;;;21014424;28;20078;-78
2021/03/06 06:41:10;;;;;;;15.23;8.38;;;0.80;99.90;;;;;;20996935;28;20067;-78
2021/03/06 06:51:12;;;;;;;13.02;7.13;;;0.80;99.90;;;;;;20986770;28;20024;-76
2021/03/06 07:01:30;;;;;;;14.50;7.75;;;0.90;99.90;;;;;;20991514;28;20032;-76
2021/03/06 07:11:31;;;;;;;16.70;7.75;;;1.00;99.90;;;;;;21003175;22;20045;-75
2021/03/06 07:21:49;;;;;;;17.00;7.65;;;1.20;99.90;;;;;;20995484;28;20456;-75
2021/03/06 07:31:52;;;;;;;17.23;7.90;;;1.40;99.90;;;;;;21001904;28;20028;-75
2021/03/06 07:41:58;;;;;;;15.15;7.13;;;1.80;99.90;;;;;;21001370;28;20067;-75
2021/03/06 07:52:01;;;;;;;17.17;8.15;;;2.30;99.90;;;;;;20999864;28;20035;-76
2021/03/06 08:02:35;;;;;;;14.15;8.27;;;2.90;99.90;;;;;;20999531;28;20032;-75
2021/03/06 08:12:36;;;;;;;12.95;7.47;;;4.70;99.90;;;;;;20999673;28;20182;-77
2021/03/06 08:22:37;;;;;;;16.55;8.65;;;4.70;99.90;;;;;;20975144;28;20031;-75
2021/03/06 08:32:40;;;;;;;13.33;7.33;;;5.40;99.90;;;;;;20913888;28;20064;-75
2021/03/06 08:42:46;;;;;;;13.32;7.90;;;5.40;99.90;;;;;;20914054;28;20029;-77
2021/03/06 08:52:54;;;;;;;13.75;8.40;;;4.70;99.90;;;;;;20913408;28;20033;-75
2021/03/06 09:02:56;;;;;;;17.92;8.88;;;5.50;99.90;;;;;;20948527;28;20545;-76
2021/03/06 09:13:02;;;;;;;13.23;8.07;;;6.70;99.90;;;;;;20994705;28;20059;-76
2021/03/06 09:23:03;;;;;;;12.65;7.93;;;6.40;99.90;;;;;;20993756;28;20060;-76
2021/03/06 09:33:20;;;;;;;16.17;8.00;;;7.50;99.90;;;;;;20963513;28;20020;-77
2021/03/06 09:43:30;;;;;;;15.05;8.00;;;7.60;99.90;;;;;;20960550;28;20043;-73
2021/03/06 09:53:31;;;;;;;14.60;9.15;;;8.10;99.90;;;;;;20989670;28;20036;-76
2021/03/06 10:03:34;;;;;;;14.57;8.20;;;9.40;99.90;;;;;;20953272;28;20387;-75
2021/03/06 10:13:35;;;;;;;12.57;7.70;;;8.90;99.90;;;;;;20953014;28;20539;-76
2021/03/06 10:23:36;;;;;;;11.13;7.57;;;9.60;99.90;;;;;;20949361;28;20072;-75
2021/03/06 10:33:39;;;;;;;12.97;7.40;;;10.10;99.90;;;;;;20948447;28;20063;-77
2021/03/06 10:43:43;;;;;;;12.07;7.82;;;10.20;99.90;;;;;;20975695;28;20048;-76
2021/03/06 10:54:02;;;;;;;13.38;7.93;;;10.80;99.90;;;;;;20961813;28;20065;-76
2021/03/06 11:04:03;;;;;;;14.23;7.97;;;10.40;99.90;;;;;;20981812;28;20033;-77
2021/03/06 11:14:04;;;;;;;14.47;8.60;;;10.00;99.90;;;;;;20953314;28;20036;-76
2021/03/06 11:24:05;;;;;;;14.17;8.30;;;11.10;99.90;;;;;;20967800;28;20443;-78
2021/03/06 11:34:06;;;;;;;15.27;9.37;;;11.20;99.90;;;;;;21004351;28;20059;-77
2021/03/06 11:44:08;;;;;;;16.02;9.05;;;10.80;99.90;;;;;;20959591;28;20036;-76
2021/03/06 11:54:09;;;;;;;16.15;8.93;;;10.50;99.90;;;;;;20976448;28;20089;-76
2021/03/06 12:04:10;;;;;;;14.47;8.83;;;11.40;99.90;;;;;;20948692;28;20039;-76
2021/03/06 12:14:11;;;;;;;17.47;10.73;;;11.40;99.90;;;;;;20929950;28;20032;-78
2021/03/06 12:24:12;;;;;;;16.50;9.87;;;11.00;99.90;;;;;;20973008;28;20036;-78
2021/03/06 12:34:14;;;;;;;13.85;9.35;;;11.70;99.90;;;;;;20983467;28;20526;-75
2021/03/06 12:44:15;;;;;;;12.80;8.23;;;11.40;99.90;;;;;;20895573;28;20089;-78
2021/03/06 12:54:16;;;;;;;16.30;9.52;;;11.20;99.90;;;;;;20937707;28;20032;-75
2021/03/06 13:04:16;;;;;;;13.82;8.73;;;11.40;99.90;;;;;;20987794;22;20046;-76
2021/03/06 13:14:17;;;;;;;16.02;9.07;;;11.90;99.90;;;;;;21073319;28;20062;-76
2021/03/06 13:24:18;;;;;;;13.53;8.60;;;12.00;99.90;;;;;;21025657;28;20038;-75
2021/03/06 13:34:19;;;;;;;14.43;8.50;;;12.30;99.90;;;;;;20995304;28;20032;-75
2021/03/06 13:44:21;;;;;;;15.43;9.97;;;11.40;99.90;;;;;;21020659;28;20042;-75
2021/03/06 13:54:22;;;;;;;16.63;9.50;;;11.90;99.90;;;;;;21016802;28;20036;-75
2021/03/06 14:04:23;;;;;;;12.63;8.40;;;12.30;99.90;;;;;;21012494;28;20291;-74
2021/03/06 14:14:24;;;;;;;11.25;8.10;;;12.60;99.90;;;;;;21020211;28;20086;-74
2021/03/06 14:24:24;;;;;;;15.80;10.55;;;12.80;99.10;;;;;;20997873;28;20462;-76
2021/03/06 14:34:25;;;;;;;14.80;9.63;;;11.40;99.90;;;;;;21016680;28;20495;-75
2021/03/06 14:44:26;;;;;;;15.53;9.57;;;10.00;99.90;;;;;;21027197;28;20032;-75
2021/03/06 14:54:27;;;;;;;20.47;11.67;;;11.40;99.90;;;;;;21055953;28;20039;-74
2021/03/06 15:04:28;;;;;;;20.27;11.63;;;10.90;99.90;;;;;;21117188;28;20513;-75
2021/03/06 15:14:29;;;;;;;16.47;9.83;;;10.80;99.90;;;;;;21108948;28;20035;-75
2021/03/06 15:24:30;;;;;;;15.88;9.80;;;10.70;99.90;;;;;;20998820;28;20032;-73
2021/03/06 15:34:30;;;;;;;16.93;9.73;;;11.00;99.90;;;;;;21023274;28;20028;-73
2021/03/06 15:44:31;;;;;;;13.40;8.70;;;10.50;99.90;;;;;;20996311;28;20131;-75
2021/03/06 15:54:32;;;;;;;15.13;9.38;;;10.70;99.90;;;;;;21023335;28;20036;-75
2021/03/06 16:04:33;;;;;;;14.33;9.23;;;10.90;99.90;;;;;;21013564;28;20528;-75
2021/03/06 16:14:34;;;;;;;15.73;9.50;;;10.00;99.90;;;;;;21016418;28;20077;-75
2021/03/06 16:24:35;;;;;;;14.30;8.97;;;9.00;99.90;;;;;;20996744;28;20032;-75
2021/03/06 16:34:36;;;;;;;17.10;9.40;;;8.40;99.90;;;;;;21019910;28;20020;-74
2021/03/06 16:44:38;;;;;;;18.33;10.60;;;8.20;99.90;;;;;;21039901;28;20047;-75
2021/03/06 16:54:39;;;;;;;15.48;9.50;;;7.80;99.90;;;;;;21038501;28;20039;-75
2021/03/06 17:04:40;;;;;;;20.83;10.10;;;7.60;99.90;;;;;;20965857;28;20044;-75
2021/03/06 17:14:41;;;;;;;15.60;9.27;;;7.30;99.90;;;;;;20987102;28;20089;-75
2021/03/06 17:24:42;;;;;;;16.67;9.00;;;7.20;99.90;;;;;;20971692;28;20041;-75
2021/03/06 17:34:44;;;;;;;17.50;9.67;;;6.10;99.90;;;;;;20971953;28;20131;-75
2021/03/06 17:44:45;;;;;;;15.25;9.00;;;5.40;99.90;;;;;;20970647;28;20033;-75
2021/03/06 17:54:45;;;;;;;15.37;9.03;;;5.20;99.90;;;;;;20969585;28;20029;-74
2021/03/06 18:04:46;;;;;;;18.47;10.00;;;4.00;99.90;;;;;;21029030;28;20039;-74
2021/03/06 18:14:47;;;;;;;20.77;11.27;;;4.40;99.90;;;;;;21043122;28;20043;-73
2021/03/06 18:24:48;;;;;;;26.43;12.77;;;4.60;99.90;;;;;;21052502;28;20151;-75
2021/03/06 18:34:49;;;;;;;28.27;13.03;;;4.10;99.90;;;;;;21010214;28;20039;-75
2021/03/06 18:44:50;;;;;;;25.60;12.50;;;4.00;99.90;;;;;;21022779;28;20035;-75
2021/03/06 18:54:50;;;;;;;29.67;11.50;;;3.80;99.90;;;;;;21012825;28;20032;-75
2021/03/06 19:04:51;;;;;;;18.03;10.47;;;3.50;99.90;;;;;;21009576;28;20347;-73
2021/03/06 19:14:53;;;;;;;23.73;10.60;;;3.60;99.90;;;;;;21015900;28;20098;-74
2021/03/06 19:24:54;;;;;;;22.27;10.13;;;3.30;99.90;;;;;;20983178;28;20036;-74
2021/03/06 19:34:55;;;;;;;20.80;10.23;;;3.10;99.90;;;;;;21039033;28;20024;-75
2021/03/06 19:44:56;;;;;;;20.27;9.82;;;2.70;99.90;;;;;;21014171;28;20090;-75
2021/03/06 19:54:57;;;;;;;20.17;10.02;;;2.60;99.90;;;;;;21007920;28;20044;-75
2021/03/06 20:04:57;;;;;;;;;;;2.50;99.90;;;;;;20994457;28;20082;-74
2021/03/06 20:14:58;;;;;;;13.93;8.40;;;2.50;99.90;;;;;;20997158;28;19919;-74
2021/03/06 20:24:59;;;;;;;17.98;8.15;;;2.40;99.90;;;;;;21034686;28;20084;-74
2021/03/06 20:35:00;;;;;;;;;;;2.20;99.90;;;;;;21068950;28;20068;-74
2021/03/06 20:45:03;;;;;;;16.08;8.68;;;2.00;99.90;;;;;;20994723;28;19944;-75
2021/03/06 20:55:04;;;;;;;16.67;9.10;;;1.80;99.90;;;;;;21067676;28;20522;-76
2021/03/06 21:05:06;;;;;;;16.58;8.57;;;1.70;99.90;;;;;;21072708;28;20135;-76
2021/03/06 21:15:08;;;;;;;15.77;8.30;;;1.60;99.90;;;;;;21033886;28;20052;-74
2021/03/06 21:25:09;;;;;;;15.98;7.47;;;1.60;99.90;;;;;;21037102;28;20085;-75
2021/03/06 21:35:11;;;;;;;19.98;8.02;;;1.50;99.90;;;;;;21057232;28;20026;-76
2021/03/06 21:45:12;;;;;;;17.90;7.70;;;1.50;99.90;;;;;;21003942;28;20389;-76
2021/03/06 21:55:14;;;;;;;14.00;7.35;;;1.40;99.90;;;;;;21056506;28;20052;-76
2021/03/06 22:05:15;;;;;;;14.73;7.57;;;1.30;99.90;;;;;;21030100;28;20024;-74
2021/03/06 22:15:16;;;;;;;15.10;7.00;;;1.30;99.90;;;;;;21028814;28;20044;-74
2021/03/06 22:25:17;;;;;;;14.68;7.50;;;1.10;99.90;;;;;;21026035;28;20025;-74
2021/03/06 22:35:19;;;;;;;13.50;6.75;;;1.10;99.90;;;;;;21027338;28;20028;-74
2021/03/06 22:45:20;;;;;;;14.88;7.07;;;1.00;99.90;;;;;;21071999;28;20028;-74
2021/03/06 22:55:20;;;;;;;14.38;7.10;;;1.00;99.90;;;;;;21083739;28;20043;-75
2021/03/06 23:05:21;;;;;;;15.25;6.97;;;0.70;99.90;;;;;;21088148;28;20040;-75
2021/03/06 23:15:22;;;;;;;12.43;6.93;;;0.60;99.90;;;;;;21087398;28;20028;-75
2021/03/06 23:25:23;;;;;;;14.23;6.95;;;0.70;99.90;;;;;;21071651;23;20040;-75
2021/03/06 23:35:24;;;;;;;14.88;7.30;;;0.40;99.90;;;;;;21006319;28;20028;-76
2021/03/06 23:45:25;;;;;;;13.73;6.88;;;0.60;99.90;;;;;;21000138;28;20040;-74
2021/03/06 23:55:26;;;;;;;13.77;6.78;;;0.60;99.90;;;;;;20939202;28;20491;-74
